Chippewa Valley Regional Airport
KEAU : rendu visible

Aérodrome :











RETROUVEZ-NOUS SUR...

 
LOGIN :

S'inscrire | Disclaimer

   EN    FR    IT 

 









Légende :    VFR   VFR Marginal   IFR   IFR Intensif   IFR Très Intensif
Visi : 
Plafond : 
>= 8 km
>= 3000ft
5 à 8 km
1000 à 3000 ft
1500m à 5 km
500 à 1000 ft
800 à 1500m
200 à 500 ft
< 800m
< 200 ft
Symboles :   Orages  Brouillard  Fortes neiges  Fortes précipitations  Vent > 20 kt






- Altitude de l'aérodrome : 913 ft
- Code IATA : EAU


KEAU - Chippewa Valley Regional

DERNIER METAR :
  • 031356Z 22005KT 10SM FEW085 21/17 A2986 RMK AO2 SLP110 T02060172

METARs EXPIRÉS :
  • 031309Z 20005KT 10SM FEW005 SCT090 19/17 A2986 RMK AO2 T01890167
  • 031256Z 21005KT 10SM CLR 18/17 A2986 RMK AO2 SLP110 T01830167
  • 031230Z 22004KT 8SM SCT001 17/16 A2986 RMK AO2 T01720161
  • 031216Z 22004KT 3SM BR BKN001 17/16 A2986 RMK AO2 T01670161
  • 031159Z 22003KT 3/4SM BR VV002 16/16 A2985 RMK AO2 T01610156
  • 031156Z 00000KT 1 3/4SM BR BKN001 16/16 A2985 RMK AO2 SLP107 70021 T01610156 10172 20150 53002
  • 031128Z 00000KT 4SM BR FEW002 16/15 A2985 RMK AO2 T01610150

TAF KEAU
Valide du 03 à 14h jusqu'au 04 à 12h UTC


031359Z 0314/0412 22005KT P6SM FEW100
FM031600 29010KT P6SM SKC
FM040200 VRB02KT P6SM SCT250
FIR KZMP / Amérique du Nord



MET'MAP, la Météo Aéronautique d'un coup d'oeil ! - Copyright ORBIFLY Décembre 2007 - Disclaimer

ORBIFLY MET'MAP TEAM :

Programmation & Développement : Alexandra Zaïnal
Sur une idée originale de : Baudouin d'Aumeries
Assistance à la programmation : Marc-Olivier Méhu
Soutien technique & logistique : Manuel Goepfert

Contact : metmap@orbifly.com




SOURCES & CREDITS :

   NOAA       Earth
Advisory